Time;durP1;ratioP1;P1;durP2;ratioP2;P2;SDS_P1;SDS_P2;PMS_P1;PMS_P2;Temp;Humidity;BMP_temperature;BMP_pressure;BME280_temperature;BME280_humidity;BME280_pressure;Samples;Min_cycle;Max_cycle;Signal;HPM_P1;HPM_P2
2024/03/25 00:00:44;;;;;;;4.55;0.85;;;9.40;65.00;;;;;;2368697;53;20950;-65
2024/03/25 00:03:10;;;;;;;2.37;0.70;;;9.30;64.90;;;;;;2368972;53;21003;-66
2024/03/25 00:05:36;;;;;;;2.28;1.08;;;9.30;64.90;;;;;;2368953;53;21787;-65
2024/03/25 00:08:03;;;;;;;2.15;0.85;;;9.30;64.90;;;;;;2369352;53;20977;-66
2024/03/25 00:10:29;;;;;;;2.53;0.93;;;9.30;65.00;;;;;;2369759;53;20926;-66
2024/03/25 00:12:57;;;;;;;2.70;1.02;;;9.20;64.90;;;;;;2341401;53;20997;-65
2024/03/25 00:15:24;;;;;;;3.22;1.05;;;9.20;65.00;;;;;;2341036;53;20937;-65
2024/03/25 00:17:51;;;;;;;2.10;0.88;;;9.20;65.00;;;;;;2340861;53;20968;-66
2024/03/25 00:20:17;;;;;;;2.25;1.10;;;9.20;65.00;;;;;;2340908;53;21016;-66
2024/03/25 00:22:44;;;;;;;3.15;1.25;;;9.10;65.00;;;;;;2341151;53;20980;-65
2024/03/25 00:25:10;;;;;;;2.50;1.05;;;9.10;65.10;;;;;;2341142;53;21730;-66
2024/03/25 00:27:39;;;;;;;2.33;1.08;;;9.10;65.10;;;;;;2340986;53;20916;-65
2024/03/25 00:30:09;;;;;;;4.00;1.12;;;9.00;65.00;;;;;;2341041;53;21462;-66
2024/03/25 00:32:38;;;;;;;3.70;1.10;;;9.00;65.10;;;;;;2341999;53;21063;-66
2024/03/25 00:35:05;;;;;;;2.35;1.15;;;9.00;65.10;;;;;;2342058;53;21012;-65
2024/03/25 00:37:31;;;;;;;3.40;1.30;;;9.00;65.20;;;;;;2341902;53;20965;-65
2024/03/25 00:39:57;;;;;;;2.70;0.90;;;9.00;65.20;;;;;;2341538;53;21068;-65
2024/03/25 00:42:23;;;;;;;2.65;1.20;;;9.00;65.20;;;;;;2341761;53;20995;-65
2024/03/25 00:44:50;;;;;;;2.83;1.33;;;9.00;65.20;;;;;;2341286;53;20933;-65
2024/03/25 00:47:16;;;;;;;3.62;1.33;;;8.90;65.20;;;;;;2341243;53;21417;-66
2024/03/25 00:49:42;;;;;;;2.87;1.23;;;8.90;65.20;;;;;;2341408;53;20936;-66
2024/03/25 00:52:09;;;;;;;2.50;1.10;;;8.90;65.20;;;;;;2341738;53;20936;-67
2024/03/25 00:54:35;;;;;;;3.25;1.35;;;8.90;65.20;;;;;;2341554;53;20920;-65
2024/03/25 00:57:02;;;;;;;2.80;1.10;;;8.90;65.20;;;;;;2341391;53;20933;-66
2024/03/25 00:59:31;;;;;;;3.05;0.90;;;8.90;65.20;;;;;;2341579;53;21474;-65
2024/03/25 01:01:57;;;;;;;2.42;1.00;;;8.80;65.20;;;;;;2362856;53;21420;-65
2024/03/25 01:04:24;;;;;;;2.30;1.00;;;8.80;65.20;;;;;;2369042;53;21282;-66
2024/03/25 01:06:51;;;;;;;2.15;0.90;;;8.90;65.20;;;;;;2351750;53;21526;-64
2024/03/25 01:09:18;;;;;;;2.33;1.08;;;8.80;65.20;;;;;;2350329;53;20942;-65
2024/03/25 01:11:44;;;;;;;3.42;1.00;;;8.80;65.20;;;;;;2364274;53;20960;-66
2024/03/25 01:14:10;;;;;;;3.25;1.10;;;8.80;65.20;;;;;;2351644;53;21412;-65
2024/03/25 01:16:37;;;;;;;2.53;0.90;;;8.80;65.20;;;;;;2368664;53;20950;-65
2024/03/25 01:19:03;;;;;;;2.55;1.00;;;8.80;65.20;;;;;;2368899;53;21444;-66
2024/03/25 01:21:30;;;;;;;3.85;1.30;;;8.70;65.10;;;;;;2348382;54;20958;-65
2024/03/25 01:23:56;;;;;;;1.60;0.75;;;8.70;65.20;;;;;;2368251;53;21050;-66
2024/03/25 01:26:22;;;;;;;2.80;1.33;;;8.70;65.20;;;;;;2369064;53;20998;-65
2024/03/25 01:28:49;;;;;;;4.10;1.10;;;8.70;65.20;;;;;;2368566;53;20981;-66
2024/03/25 01:31:15;;;;;;;2.50;1.10;;;8.70;65.20;;;;;;2368587;53;21443;-66
2024/03/25 01:33:42;;;;;;;2.78;1.20;;;8.60;65.80;;;;;;2368811;53;20938;-65
2024/03/25 01:36:11;;;;;;;2.10;0.90;;;8.60;65.10;;;;;;2369155;53;21158;-66
2024/03/25 01:38:37;;;;;;;3.85;1.02;;;8.60;65.10;;;;;;2368941;53;20925;-65
2024/03/25 01:41:10;;;;;;;3.15;1.20;;;8.60;65.20;;;;;;2369031;53;20958;-66
2024/03/25 01:43:37;;;;;;;3.20;1.23;;;8.50;65.00;;;;;;2355121;53;20987;-65
2024/03/25 01:46:03;;;;;;;3.30;1.37;;;8.50;65.20;;;;;;2356068;53;21546;-66
2024/03/25 01:48:29;;;;;;;5.35;1.90;;;8.50;65.20;;;;;;2356802;53;20914;-65
2024/03/25 01:50:55;;;;;;;4.12;1.55;;;8.50;65.20;;;;;;2368400;53;20961;-66
2024/03/25 01:53:24;;;;;;;2.65;1.10;;;8.50;65.30;;;;;;2368648;53;21002;-64
2024/03/25 01:55:53;;;;;;;2.67;1.00;;;8.50;65.40;;;;;;2368733;53;20950;-66
2024/03/25 01:58:22;;;;;;;4.65;1.10;;;8.40;65.30;;;;;;2369120;53;20989;-65
2024/03/25 02:00:50;;;;;;;2.87;1.37;;;8.50;65.40;;;;;;2368425;53;21285;-65
2024/03/25 02:03:16;;;;;;;3.35;1.37;;;8.40;65.30;;;;;;2369052;53;21352;-64
2024/03/25 02:06:06;;;;;;;3.53;1.05;;;8.40;65.20;;;;;;2369033;53;20902;-66
2024/03/25 02:08:32;;;;;;;2.50;1.23;;;8.40;64.90;;;;;;2341087;53;20937;-66
2024/03/25 02:10:59;;;;;;;2.90;1.10;;;8.40;65.10;;;;;;2340607;53;20929;-66
2024/03/25 02:13:25;;;;;;;3.03;1.20;;;8.40;65.10;;;;;;2341179;53;20944;-67
2024/03/25 02:15:52;;;;;;;3.75;1.17;;;8.30;65.00;;;;;;2340598;53;20937;-65
2024/03/25 02:18:18;;;;;;;2.75;1.02;;;8.30;65.00;;;;;;2338997;53;21258;-67
2024/03/25 02:20:45;;;;;;;3.37;1.20;;;8.30;65.00;;;;;;2324389;53;21016;-65
2024/03/25 02:23:12;;;;;;;3.67;1.27;;;8.30;65.00;;;;;;2340716;53;21406;-65
2024/03/25 02:25:42;;;;;;;2.70;1.10;;;8.20;64.90;;;;;;2341596;53;20936;-66
2024/03/25 02:28:09;;;;;;;2.55;1.00;;;8.20;65.00;;;;;;2341676;53;20988;-66
2024/03/25 02:30:40;;;;;;;2.62;1.10;;;8.20;65.00;;;;;;2339341;54;20980;-65
2024/03/25 02:33:06;;;;;;;3.10;1.35;;;8.20;65.00;;;;;;2342227;53;21017;-67
2024/03/25 02:35:33;;;;;;;4.45;1.20;;;8.10;64.90;;;;;;2368968;53;20941;-67
2024/03/25 02:37:59;;;;;;;3.30;1.10;;;8.10;65.00;;;;;;2368707;53;21032;-66
2024/03/25 02:40:26;;;;;;;2.40;1.10;;;8.10;65.00;;;;;;2369176;53;20981;-67
2024/03/25 02:42:53;;;;;;;2.78;1.30;;;8.10;65.00;;;;;;2368785;53;20934;-66
2024/03/25 02:45:19;;;;;;;2.75;1.25;;;8.00;64.90;;;;;;2368675;53;20946;-65
2024/03/25 02:47:47;;;;;;;2.78;1.20;;;8.00;64.90;;;;;;2369229;53;20930;-66
2024/03/25 02:50:16;;;;;;;3.08;1.25;;;8.00;64.90;;;;;;2368831;53;21415;-66
2024/03/25 02:52:43;;;;;;;4.18;1.65;;;7.90;64.90;;;;;;2369224;53;20910;-67
2024/03/25 02:55:09;;;;;;;2.90;1.45;;;7.90;64.90;;;;;;2368474;53;20957;-66
2024/03/25 02:57:35;;;;;;;5.40;1.33;;;7.90;64.90;;;;;;2369477;53;20945;-66
2024/03/25 03:00:02;;;;;;;2.22;1.15;;;7.90;65.00;;;;;;2361379;53;21225;-65
2024/03/25 03:02:29;;;;;;;3.03;1.40;;;7.80;64.90;;;;;;2355760;53;20934;-66
2024/03/25 03:05:00;;;;;;;3.25;1.30;;;7.80;64.90;;;;;;2369023;53;20925;-66
2024/03/25 03:07:27;;;;;;;2.70;1.30;;;7.80;65.00;;;;;;2368475;53;21269;-65
2024/03/25 03:09:53;;;;;;;2.75;1.15;;;7.80;65.00;;;;;;2368526;53;20974;-66
2024/03/25 03:12:19;;;;;;;3.80;1.30;;;7.80;65.00;;;;;;2369291;53;20989;-65
2024/03/25 03:14:46;;;;;;;4.95;1.30;;;7.70;65.00;;;;;;2367703;53;20965;-66
2024/03/25 03:17:12;;;;;;;3.42;1.25;;;7.70;65.00;;;;;;2368760;53;22076;-65
2024/03/25 03:19:39;;;;;;;3.22;1.20;;;7.70;65.00;;;;;;2355179;54;20990;-66
2024/03/25 03:22:05;;;;;;;3.78;1.27;;;7.70;65.00;;;;;;2362327;53;20919;-65
2024/03/25 03:24:32;;;;;;;3.75;1.30;;;7.70;65.10;;;;;;2369152;53;21404;-66
2024/03/25 03:26:58;;;;;;;3.62;1.30;;;7.70;65.10;;;;;;2368693;53;20962;-67
2024/03/25 03:29:26;;;;;;;5.00;1.30;;;7.60;65.10;;;;;;2368416;53;21720;-65
2024/03/25 03:31:52;;;;;;;3.50;1.50;;;7.60;65.20;;;;;;2368529;53;20918;-65
2024/03/25 03:34:21;;;;;;;5.00;1.62;;;7.60;65.30;;;;;;2368699;53;20946;-65
2024/03/25 03:36:50;;;;;;;4.28;1.67;;;7.60;65.40;;;;;;2369595;53;20939;-67
2024/03/25 03:39:16;;;;;;;4.30;1.50;;;7.60;65.40;;;;;;2369466;53;20926;-67
2024/03/25 03:41:42;;;;;;;3.80;1.60;;;7.60;65.50;;;;;;2369375;53;21601;-65
2024/03/25 03:44:09;;;;;;;3.50;1.50;;;7.60;65.70;;;;;;2368514;53;21297;-66
2024/03/25 03:46:35;;;;;;;4.55;1.55;;;7.60;65.70;;;;;;2368963;53;20981;-65
2024/03/25 03:49:02;;;;;;;3.97;1.50;;;7.60;65.70;;;;;;2368488;53;21001;-65
2024/03/25 03:51:28;;;;;;;4.65;1.55;;;7.60;65.70;;;;;;2368103;53;21419;-65
2024/03/25 03:53:54;;;;;;;3.17;1.48;;;7.60;65.80;;;;;;2369118;53;20970;-65
2024/03/25 03:56:21;;;;;;;5.97;1.40;;;7.60;65.90;;;;;;2368442;53;21728;-65
2024/03/25 03:58:47;;;;;;;4.28;1.50;;;7.60;66.00;;;;;;2368262;53;21006;-65
2024/03/25 04:01:17;;;;;;;3.70;1.30;;;7.60;66.00;;;;;;2368261;53;20930;-67
2024/03/25 04:03:43;;;;;;;3.17;1.15;;;7.60;66.00;;;;;;2349367;53;21003;-67
2024/03/25 04:06:11;;;;;;;3.90;1.40;;;7.60;66.00;;;;;;2368218;53;21312;-66
2024/03/25 04:08:38;;;;;;;3.30;1.30;;;7.60;66.00;;;;;;2369148;53;21045;-65
2024/03/25 04:11:06;;;;;;;3.72;1.23;;;7.60;66.00;;;;;;2368602;53;20961;-65
2024/03/25 04:13:35;;;;;;;2.58;1.05;;;7.60;66.00;;;;;;2369318;53;21885;-65
2024/03/25 04:16:03;;;;;;;4.80;1.48;;;7.70;66.10;;;;;;2368904;53;21531;-66
2024/03/25 04:18:30;;;;;;;3.58;1.42;;;7.70;66.10;;;;;;2369351;53;20950;-67
2024/03/25 04:20:56;;;;;;;3.92;1.40;;;7.70;66.10;;;;;;2369738;53;21394;-66
2024/03/25 04:23:23;;;;;;;3.42;1.42;;;7.70;66.20;;;;;;2368865;53;21190;-66
2024/03/25 04:25:49;;;;;;;3.25;1.25;;;7.70;66.20;;;;;;2368683;53;20970;-66
2024/03/25 04:28:16;;;;;;;2.42;1.27;;;7.70;66.20;;;;;;2368481;53;20990;-66
2024/03/25 04:30:42;;;;;;;2.75;1.25;;;7.70;66.10;;;;;;2361896;53;21082;-65
2024/03/25 04:33:09;;;;;;;3.50;1.37;;;7.70;66.10;;;;;;2344253;53;20955;-65
2024/03/25 04:35:42;;;;;;;3.05;1.10;;;7.70;66.10;;;;;;2341939;53;21038;-65
2024/03/25 04:38:09;;;;;;;3.10;1.17;;;7.70;66.00;;;;;;2368845;53;21783;-65
2024/03/25 04:40:36;;;;;;;3.62;1.30;;;7.70;66.00;;;;;;2362402;53;20959;-66
2024/03/25 04:43:02;;;;;;;3.10;0.77;;;7.70;66.00;;;;;;2355261;53;21773;-66
2024/03/25 04:45:38;;;;;;;2.50;0.98;;;7.70;66.00;;;;;;2368656;53;21025;-67
2024/03/25 04:48:07;;;;;;;2.20;1.00;;;7.80;65.90;;;;;;2368555;53;20926;-66
2024/03/25 04:50:34;;;;;;;6.62;1.37;;;7.80;65.90;;;;;;2369802;53;21303;-65
2024/03/25 04:53:00;;;;;;;2.30;1.25;;;7.70;65.70;;;;;;2371293;53;20946;-65
2024/03/25 04:55:27;;;;;;;3.42;1.25;;;7.70;65.60;;;;;;2369195;53;20938;-65
2024/03/25 04:57:54;;;;;;;2.97;1.00;;;7.70;65.60;;;;;;2368983;53;20969;-66
2024/03/25 05:00:37;;;;;;;1.92;0.77;;;7.70;65.60;;;;;;2371351;53;20940;-66
2024/03/25 05:03:09;;;;;;;3.42;0.90;;;7.70;65.50;;;;;;2350337;53;21261;-66
2024/03/25 05:05:36;;;;;;;2.17;0.85;;;7.70;65.50;;;;;;2369575;53;20949;-65
2024/03/25 05:08:03;;;;;;;3.05;1.00;;;7.70;65.50;;;;;;2368964;54;20977;-66
2024/03/25 05:10:29;;;;;;;2.83;1.08;;;7.70;65.50;;;;;;2352387;54;21051;-65
2024/03/25 05:12:57;;;;;;;2.15;0.90;;;7.60;65.40;;;;;;2365677;53;20937;-65
2024/03/25 05:15:26;;;;;;;2.45;1.00;;;7.60;65.40;;;;;;2368075;53;21000;-66
2024/03/25 05:17:52;;;;;;;1.92;0.85;;;7.60;65.40;;;;;;2351458;53;20980;-67
2024/03/25 05:20:19;;;;;;;2.20;0.95;;;7.60;65.40;;;;;;2346560;53;20918;-67
2024/03/25 05:22:45;;;;;;;1.70;0.70;;;7.60;65.40;;;;;;2368815;53;21595;-66
2024/03/25 05:25:11;;;;;;;2.92;1.73;;;7.50;65.30;;;;;;2368963;53;20938;-66
2024/03/25 05:27:38;;;;;;;3.30;1.30;;;7.50;65.30;;;;;;2368945;53;21226;-67
2024/03/25 05:30:08;;;;;;;2.65;1.20;;;7.50;65.30;;;;;;2348809;53;21698;-66
2024/03/25 05:32:36;;;;;;;3.25;1.20;;;7.50;65.30;;;;;;2371393;53;21002;-66
2024/03/25 05:35:03;;;;;;;4.18;1.40;;;7.50;65.30;;;;;;2370095;53;21438;-67
2024/03/25 05:37:33;;;;;;;2.78;1.10;;;7.50;65.30;;;;;;2369126;53;20965;-66
2024/03/25 05:40:00;;;;;;;4.18;1.50;;;7.40;65.20;;;;;;2368157;53;21229;-67
2024/03/25 05:42:28;;;;;;;4.70;1.40;;;7.40;65.20;;;;;;2368660;53;20930;-66
2024/03/25 05:44:54;;;;;;;2.97;1.10;;;7.40;65.20;;;;;;2367051;53;20994;-66
2024/03/25 05:47:21;;;;;;;4.20;1.40;;;7.40;65.20;;;;;;2352381;53;20918;-66
2024/03/25 05:49:47;;;;;;;4.50;1.40;;;7.40;65.20;;;;;;2368776;53;20957;-67
2024/03/25 05:52:13;;;;;;;3.22;1.50;;;7.30;65.10;;;;;;2369315;53;20965;-67
2024/03/25 05:54:40;;;;;;;4.22;1.87;;;7.30;65.10;;;;;;2369213;53;20958;-66
2024/03/25 05:57:07;;;;;;;4.80;2.08;;;7.30;65.10;;;;;;2368807;53;21352;-66
2024/03/25 05:59:33;;;;;;;5.68;2.70;;;7.30;65.10;;;;;;2358388;53;21338;-67
2024/03/25 06:02:00;;;;;;;7.25;2.42;;;7.20;65.00;;;;;;2359119;53;20993;-67
2024/03/25 06:04:27;;;;;;;4.93;2.20;;;7.20;65.10;;;;;;2347133;54;21777;-66
2024/03/25 06:06:53;;;;;;;3.75;1.60;;;7.20;65.10;;;;;;2355252;53;20983;-67
2024/03/25 06:09:19;;;;;;;3.28;1.37;;;7.20;65.20;;;;;;2362219;53;21615;-65
2024/03/25 06:11:45;;;;;;;3.05;1.50;;;7.20;65.20;;;;;;2368674;53;21259;-65
2024/03/25 06:14:12;;;;;;;4.62;1.30;;;7.20;65.20;;;;;;2368752;53;20930;-66
2024/03/25 06:16:38;;;;;;;3.17;1.45;;;7.00;65.00;;;;;;2369038;53;21463;-66
2024/03/25 06:19:04;;;;;;;4.00;1.50;;;7.10;65.20;;;;;;2368789;53;21348;-65
2024/03/25 06:21:31;;;;;;;3.12;1.23;;;7.10;65.20;;;;;;2368151;53;20950;-66
2024/03/25 06:23:57;;;;;;;3.58;1.30;;;7.10;65.20;;;;;;2368880;53;21749;-66
2024/03/25 06:26:24;;;;;;;2.62;1.40;;;7.10;65.20;;;;;;2368732;53;21222;-66
2024/03/25 06:28:50;;;;;;;3.92;1.27;;;7.10;65.10;;;;;;2369603;53;21609;-67
2024/03/25 06:34:17;;;;;;;3.12;1.50;;;7.00;65.10;;;;;;2369318;53;21242;-66
2024/03/25 06:36:44;;;;;;;3.33;1.62;;;7.00;65.20;;;;;;2368538;53;21598;-66
2024/03/25 06:39:11;;;;;;;5.75;1.80;;;7.00;65.30;;;;;;2368745;53;20925;-65
2024/03/25 06:41:40;;;;;;;3.55;1.70;;;7.00;65.40;;;;;;2369082;53;20946;-65
2024/03/25 06:44:08;;;;;;;3.97;1.65;;;7.00;65.50;;;;;;2368886;53;20960;-66
2024/03/25 06:46:34;;;;;;;5.35;1.37;;;7.00;65.70;;;;;;2368770;53;21139;-65
2024/03/25 06:49:00;;;;;;;4.03;1.12;;;7.00;65.70;;;;;;2367929;53;20942;-64
2024/03/25 06:51:27;;;;;;;2.92;1.30;;;7.00;65.90;;;;;;2368425;53;21027;-66
2024/03/25 06:53:54;;;;;;;3.17;1.12;;;7.10;66.20;;;;;;2621580;52;20939;-66
2024/03/25 06:56:25;;;;;;;2.45;1.20;;;7.10;66.30;;;;;;2368166;53;21037;-66
2024/03/25 06:58:51;;;;;;;4.18;1.50;;;7.10;66.40;;;;;;2368748;53;20978;-67
2024/03/25 07:01:18;;;;;;;3.35;1.17;;;7.20;66.70;;;;;;2368491;53;20930;-66
2024/03/25 07:03:45;;;;;;;2.55;1.20;;;7.20;66.80;;;;;;2369200;53;20950;-65
2024/03/25 07:06:11;;;;;;;4.82;1.30;;;7.30;67.10;;;;;;2368575;53;21241;-65
2024/03/25 07:08:37;;;;;;;2.20;1.10;;;7.30;67.20;;;;;;2368505;53;20954;-65
2024/03/25 07:11:04;;;;;;;2.17;1.02;;;7.40;67.30;;;;;;2368618;53;20953;-66
2024/03/25 07:13:30;;;;;;;3.08;1.15;;;7.50;67.50;;;;;;2367973;53;20942;-67
2024/03/25 07:15:57;;;;;;;2.97;1.10;;;7.50;67.50;;;;;;2367696;53;20970;-66
2024/03/25 07:18:23;;;;;;;3.15;1.00;;;7.60;67.70;;;;;;2367993;53;20990;-65
2024/03/25 07:20:49;;;;;;;2.95;1.00;;;7.60;67.80;;;;;;2367892;53;21291;-67
2024/03/25 07:23:17;;;;;;;3.20;1.25;;;7.70;67.80;;;;;;2368285;53;21657;-66
2024/03/25 07:25:46;;;;;;;2.53;1.00;;;7.80;68.00;;;;;;2369051;53;20950;-66
2024/03/25 07:28:12;;;;;;;2.78;1.10;;;7.90;68.20;;;;;;2368853;53;20977;-66
2024/03/25 07:30:39;;;;;;;3.90;1.20;;;7.90;68.20;;;;;;2368655;53;21805;-66
2024/03/25 07:33:05;;;;;;;3.42;1.20;;;8.00;68.30;;;;;;2368649;53;20929;-66
2024/03/25 07:35:31;;;;;;;2.67;1.05;;;8.10;68.40;;;;;;2368705;53;20926;-67
2024/03/25 07:37:58;;;;;;;3.28;1.00;;;8.20;68.50;;;;;;2368517;53;21375;-67
2024/03/25 07:40:24;;;;;;;3.08;1.17;;;8.30;68.70;;;;;;2348423;53;20942;-65
2024/03/25 07:42:50;;;;;;;3.42;1.30;;;8.40;68.80;;;;;;2369180;53;20934;-65
2024/03/25 07:45:17;;;;;;;2.35;1.00;;;8.50;68.80;;;;;;2368377;53;20949;-66
2024/03/25 07:47:43;;;;;;;2.45;1.00;;;8.60;68.90;;;;;;2368279;53;21451;-66
2024/03/25 07:50:09;;;;;;;4.43;1.15;;;8.70;69.00;;;;;;2369844;53;20926;-66
2024/03/25 07:52:40;;;;;;;3.75;1.10;;;8.80;69.10;;;;;;2332014;53;20947;-66
2024/03/25 07:55:07;;;;;;;2.90;0.93;;;8.90;69.20;;;;;;2345012;54;21500;-67
2024/03/25 07:57:33;;;;;;;2.50;1.05;;;9.00;69.20;;;;;;2366981;53;20918;-66
2024/03/25 08:00:00;;;;;;;2.50;0.98;;;9.10;69.20;;;;;;2368478;53;20958;-66
2024/03/25 08:02:29;;;;;;;2.87;1.00;;;9.20;69.20;;;;;;2368143;53;21297;-67
2024/03/25 08:04:56;;;;;;;3.60;1.50;;;9.30;69.50;;;;;;2368740;53;21017;-67
2024/03/25 08:07:22;;;;;;;3.17;1.20;;;9.40;69.70;;;;;;2368690;53;20970;-67
2024/03/25 08:09:48;;;;;;;4.28;1.12;;;9.50;69.70;;;;;;2368846;53;21221;-67
2024/03/25 08:12:17;;;;;;;2.35;1.00;;;9.60;69.90;;;;;;2367670;53;21018;-66
2024/03/25 08:14:43;;;;;;;3.97;1.20;;;9.70;70.00;;;;;;2370040;53;22379;-66
2024/03/25 08:17:09;;;;;;;3.35;1.12;;;9.90;69.90;;;;;;2347581;53;20938;-67
2024/03/25 08:19:36;;;;;;;4.18;1.40;;;10.00;68.60;;;;;;2368700;53;21588;-66
2024/03/25 08:22:04;;;;;;;2.67;1.05;;;10.10;68.50;;;;;;2369104;53;21251;-66
2024/03/25 08:24:30;;;;;;;2.67;0.82;;;10.20;68.40;;;;;;2368747;53;21181;-67
2024/03/25 08:26:59;;;;;;;2.80;1.10;;;10.30;68.40;;;;;;2368931;53;21315;-66
2024/03/25 08:29:28;;;;;;;2.30;1.17;;;10.40;68.40;;;;;;2368389;53;20966;-66
2024/03/25 08:31:55;;;;;;;4.25;1.48;;;10.50;68.40;;;;;;2368576;53;20942;-66
2024/03/25 08:34:22;;;;;;;4.80;1.12;;;10.60;68.60;;;;;;2368963;53;23320;-67
2024/03/25 08:36:48;;;;;;;3.25;1.00;;;10.70;68.60;;;;;;2368939;54;21320;-67
2024/03/25 08:39:15;;;;;;;3.40;1.25;;;10.80;68.60;;;;;;2368519;53;21457;-66
2024/03/25 08:41:47;;;;;;;2.75;1.10;;;10.90;68.70;;;;;;2368597;53;20949;-67
2024/03/25 08:44:13;;;;;;;2.25;1.00;;;11.00;68.50;;;;;;2368392;53;20937;-67
2024/03/25 08:46:41;;;;;;;3.95;1.20;;;11.20;68.50;;;;;;2358642;53;21433;-66
2024/03/25 08:49:08;;;;;;;3.20;1.15;;;11.30;68.50;;;;;;2359255;54;20954;-67
2024/03/25 08:51:38;;;;;;;2.50;1.08;;;11.40;68.50;;;;;;2368731;53;20970;-67
2024/03/25 08:54:07;;;;;;;2.85;0.95;;;11.50;68.70;;;;;;2369191;53;21492;-67
2024/03/25 08:56:34;;;;;;;2.58;1.00;;;11.60;68.70;;;;;;2368908;53;20917;-67
2024/03/25 08:59:01;;;;;;;2.67;1.05;;;11.70;68.60;;;;;;2369851;53;20950;-66
2024/03/25 09:01:27;;;;;;;1.85;0.80;;;11.80;68.50;;;;;;2368633;53;21017;-68
2024/03/25 09:03:56;;;;;;;5.53;1.17;;;11.90;68.40;;;;;;2369796;53;21021;-66
2024/03/25 09:06:27;;;;;;;2.58;1.00;;;12.00;68.20;;;;;;2368480;53;20997;-67
2024/03/25 09:11:39;;;;;;;3.47;1.00;;;12.20;68.10;;;;;;2368785;53;21013;-68
2024/03/25 09:14:07;;;;;;;2.78;1.00;;;12.30;68.00;;;;;;2368318;53;21005;-67
2024/03/25 09:16:33;;;;;;;2.60;1.00;;;12.40;67.90;;;;;;2368963;54;21372;-68
2024/03/25 09:19:01;;;;;;;3.55;1.20;;;12.50;68.10;;;;;;2368805;53;20918;-66
2024/03/25 09:21:29;;;;;;;1.92;0.80;;;12.60;68.20;;;;;;2368364;53;20929;-67
2024/03/25 09:23:58;;;;;;;2.50;0.93;;;12.70;68.40;;;;;;2369087;53;21418;-66
2024/03/25 09:26:26;;;;;;;4.20;1.40;;;12.80;68.50;;;;;;2357862;53;20923;-67
2024/03/25 09:28:56;;;;;;;2.90;0.95;;;12.90;68.90;;;;;;2347638;53;20931;-68
2024/03/25 09:31:22;;;;;;;2.17;0.95;;;13.00;68.90;;;;;;2366025;53;21288;-66
2024/03/25 09:33:48;;;;;;;3.53;1.20;;;13.10;68.60;;;;;;2368022;53;20926;-65
2024/03/25 09:36:15;;;;;;;2.55;1.27;;;13.30;68.90;;;;;;2368317;53;20958;-67
2024/03/25 09:38:44;;;;;;;4.12;1.17;;;13.40;69.00;;;;;;2368794;53;21329;-66
2024/03/25 09:41:11;;;;;;;2.85;1.00;;;13.60;68.90;;;;;;2370258;53;21004;-67
2024/03/25 09:43:53;;;;;;;2.53;1.00;;;13.70;68.50;;;;;;2348143;54;20912;-66
2024/03/25 09:46:33;;;;;;;5.15;1.58;;;13.80;67.50;;;;;;2369094;53;20962;-66
2024/03/25 09:49:05;;;;;;;2.37;0.90;;;13.90;66.90;;;;;;2369136;53;20935;-66
2024/03/25 09:51:31;;;;;;;3.17;1.08;;;14.00;67.50;;;;;;2368359;53;20921;-66
2024/03/25 09:53:58;;;;;;;3.62;1.00;;;14.10;67.50;;;;;;2369330;53;21089;-66
2024/03/25 09:56:24;;;;;;;2.45;0.90;;;14.20;67.10;;;;;;2348794;54;21047;-67
2024/03/25 09:58:50;;;;;;;2.87;1.35;;;14.20;66.90;;;;;;2368960;53;20998;-67
2024/03/25 10:01:17;;;;;;;2.58;0.90;;;14.30;66.70;;;;;;2354034;53;21014;-66
2024/03/25 10:03:43;;;;;;;2.80;0.95;;;14.40;66.50;;;;;;2363753;53;20950;-66
2024/03/25 10:06:09;;;;;;;3.28;1.30;;;14.40;66.30;;;;;;2367797;53;20994;-67
2024/03/25 10:08:37;;;;;;;3.55;1.23;;;14.50;66.20;;;;;;2369220;53;20950;-66
2024/03/25 10:11:04;;;;;;;2.83;1.02;;;14.50;65.80;;;;;;2369325;53;21467;-66
2024/03/25 10:13:31;;;;;;;4.37;1.20;;;14.60;65.40;;;;;;2361416;53;21019;-66
2024/03/25 10:15:58;;;;;;;2.10;0.95;;;14.60;65.60;;;;;;2355448;53;20962;-68
2024/03/25 10:18:25;;;;;;;2.67;0.90;;;14.70;66.10;;;;;;2368935;53;21049;-66
2024/03/25 10:20:53;;;;;;;2.45;0.93;;;14.80;66.00;;;;;;2368574;53;21069;-67
2024/03/25 10:23:25;;;;;;;4.35;1.00;;;14.80;65.40;;;;;;2368495;53;20982;-67
2024/03/25 10:25:52;;;;;;;2.40;0.80;;;15.00;65.10;;;;;;2369055;53;21069;-66
2024/03/25 10:28:19;;;;;;;1.70;0.77;;;15.00;65.30;;;;;;2369255;53;21269;-68
2024/03/25 10:30:46;;;;;;;3.15;1.10;;;15.00;65.20;;;;;;2364231;53;21032;-68
2024/03/25 10:33:12;;;;;;;4.62;0.98;;;15.10;65.20;;;;;;2351785;53;21002;-67
2024/03/25 10:35:40;;;;;;;2.92;0.90;;;15.20;65.10;;;;;;2368906;53;20930;-66
2024/03/25 10:38:10;;;;;;;2.75;0.82;;;15.20;65.00;;;;;;2368685;53;21245;-67
2024/03/25 10:40:38;;;;;;;1.80;0.82;;;15.30;64.80;;;;;;2348716;54;20962;-67
2024/03/25 10:43:08;;;;;;;2.55;0.82;;;15.40;64.90;;;;;;2368584;53;20930;-67
2024/03/25 10:45:39;;;;;;;1.98;0.75;;;15.50;64.70;;;;;;2368837;53;20939;-66
2024/03/25 10:49:48;;;;;;;2.67;1.10;;;15.50;64.20;;;;;;2369676;53;21349;-66
2024/03/25 10:52:15;;;;;;;2.22;1.00;;;15.70;63.20;;;;;;2368534;53;20957;-67
2024/03/25 10:54:42;;;;;;;2.45;0.90;;;15.80;65.30;;;;;;2368187;53;20917;-66
2024/03/25 10:57:09;;;;;;;3.20;1.10;;;15.90;65.40;;;;;;2368133;53;20962;-66
2024/03/25 10:59:40;;;;;;;3.10;0.80;;;16.00;65.50;;;;;;2368582;53;21030;-67
2024/03/25 11:02:07;;;;;;;1.23;0.60;;;16.10;65.20;;;;;;2369272;53;21422;-67
2024/03/25 11:04:34;;;;;;;2.62;0.90;;;16.20;64.40;;;;;;2369163;53;21357;-68
2024/03/25 11:07:13;;;;;;;2.05;0.82;;;16.30;63.80;;;;;;2356368;53;21284;-66
2024/03/25 11:09:39;;;;;;;1.50;0.60;;;16.40;62.10;;;;;;2362736;53;21293;-68
2024/03/25 11:12:06;;;;;;;1.87;0.50;;;16.40;63.60;;;;;;2369358;53;21328;-66
2024/03/25 11:14:34;;;;;;;2.47;0.60;;;16.50;63.60;;;;;;2369006;53;20997;-66
2024/03/25 11:17:00;;;;;;;2.17;0.60;;;16.60;63.10;;;;;;2368895;53;21862;-68
2024/03/25 11:19:27;;;;;;;1.37;0.65;;;16.60;62.90;;;;;;2368880;53;20938;-67
2024/03/25 11:21:54;;;;;;;1.85;0.62;;;16.70;62.80;;;;;;2349016;54;20964;-67
2024/03/25 11:24:29;;;;;;;2.40;0.77;;;16.80;63.00;;;;;;2368965;53;20938;-67
2024/03/25 11:26:56;;;;;;;3.17;0.90;;;16.90;62.00;;;;;;2369203;53;21017;-66
2024/03/25 11:29:23;;;;;;;3.75;0.60;;;17.00;63.00;;;;;;2346890;53;21519;-69
2024/03/25 11:31:49;;;;;;;3.78;0.80;;;16.90;62.70;;;;;;2368181;53;21399;-67
2024/03/25 11:34:15;;;;;;;1.70;0.70;;;17.10;62.80;;;;;;2340385;54;21001;-67
2024/03/25 11:36:42;;;;;;;1.85;0.68;;;17.30;62.70;;;;;;2357433;53;21324;-67
2024/03/25 11:39:12;;;;;;;2.65;0.70;;;17.30;62.10;;;;;;2368289;53;21328;-66
2024/03/25 11:41:41;;;;;;;3.33;0.70;;;17.40;61.70;;;;;;2368895;53;21301;-67
2024/03/25 11:44:10;;;;;;;3.30;0.90;;;17.50;61.30;;;;;;2368681;53;20938;-67
2024/03/25 11:46:36;;;;;;;1.95;0.77;;;17.60;62.10;;;;;;2361958;53;20955;-67
2024/03/25 11:49:11;;;;;;;2.35;0.80;;;17.60;61.70;;;;;;2355753;53;21253;-67
2024/03/25 11:51:40;;;;;;;2.33;0.75;;;17.70;60.90;;;;;;2368938;53;20946;-66
2024/03/25 11:54:07;;;;;;;2.40;0.60;;;17.80;61.40;;;;;;2368751;53;20984;-67
2024/03/25 11:56:33;;;;;;;1.65;0.50;;;17.90;61.70;;;;;;2368516;53;21016;-68
2024/03/25 11:59:00;;;;;;;2.47;0.75;;;17.90;61.20;;;;;;2368055;53;21649;-66
2024/03/25 12:01:26;;;;;;;2.15;0.60;;;18.00;61.20;;;;;;2368548;53;20933;-67
2024/03/25 12:03:53;;;;;;;2.42;0.60;;;18.00;61.10;;;;;;2368594;53;21772;-66
2024/03/25 12:06:19;;;;;;;2.03;0.70;;;18.10;61.20;;;;;;2368737;53;21391;-67
2024/03/25 12:11:30;;;;;;;1.90;0.52;;;18.30;60.50;;;;;;2357739;53;21464;-66
2024/03/25 12:13:57;;;;;;;2.62;0.70;;;18.30;59.80;;;;;;2359359;53;20934;-66
2024/03/25 12:16:24;;;;;;;1.98;0.70;;;18.30;59.20;;;;;;2368360;53;20930;-68
2024/03/25 12:18:50;;;;;;;3.40;0.90;;;18.30;59.20;;;;;;2368727;53;20969;-67
2024/03/25 12:21:17;;;;;;;2.12;0.60;;;18.30;59.20;;;;;;2368645;53;20913;-66
2024/03/25 12:23:44;;;;;;;2.17;0.55;;;18.30;58.90;;;;;;2340948;53;20960;-68
2024/03/25 12:26:11;;;;;;;1.87;0.55;;;18.30;58.70;;;;;;2339935;53;20955;-65
2024/03/25 12:28:39;;;;;;;1.45;0.47;;;18.40;58.80;;;;;;2340825;53;21044;-66
2024/03/25 12:31:07;;;;;;;2.10;0.60;;;18.40;58.70;;;;;;2341329;53;20928;-66
2024/03/25 12:33:41;;;;;;;1.37;0.60;;;18.40;58.50;;;;;;2343633;53;22187;-66
2024/03/25 12:36:09;;;;;;;1.80;0.55;;;18.50;58.50;;;;;;2362636;53;21072;-66
2024/03/25 12:38:35;;;;;;;1.95;0.60;;;18.50;59.30;;;;;;2369214;53;20929;-66
2024/03/25 12:41:08;;;;;;;1.15;0.50;;;18.60;59.40;;;;;;2368116;53;21394;-69
2024/03/25 12:43:36;;;;;;;1.02;0.47;;;18.60;59.10;;;;;;2368560;53;20946;-68
2024/03/25 12:46:05;;;;;;;3.05;0.85;;;18.70;59.60;;;;;;2368118;53;21268;-66
2024/03/25 12:48:31;;;;;;;1.95;0.50;;;18.80;59.90;;;;;;2358055;53;20959;-67
2024/03/25 12:50:58;;;;;;;2.87;0.60;;;18.80;59.90;;;;;;2359169;53;20957;-67
2024/03/25 12:53:24;;;;;;;1.23;0.47;;;18.90;59.70;;;;;;2367894;53;21408;-68
2024/03/25 12:55:58;;;;;;;1.40;0.60;;;19.00;59.80;;;;;;2368128;53;20946;-67
2024/03/25 12:58:24;;;;;;;1.48;0.77;;;19.10;59.60;;;;;;2368879;53;20922;-66
2024/03/25 13:00:51;;;;;;;2.10;0.73;;;19.10;59.30;;;;;;2368639;53;22120;-67
2024/03/25 13:03:18;;;;;;;1.60;0.60;;;19.20;59.00;;;;;;2368596;53;20942;-66